createdAt,value
2018-09-05T00:01:49.543Z,99.90
2018-09-05T00:04:17.823Z,99.90
2018-09-05T00:06:46.220Z,99.90
2018-09-05T00:09:14.582Z,99.90
2018-09-05T00:11:42.968Z,99.90
2018-09-05T00:14:11.281Z,99.90
2018-09-05T00:16:39.538Z,99.90
2018-09-05T00:19:07.805Z,99.90
2018-09-05T00:21:36.086Z,99.90
2018-09-05T00:24:04.425Z,99.90
2018-09-05T00:26:32.726Z,99.90
2018-09-05T00:29:01.001Z,99.90
2018-09-05T00:31:29.311Z,99.90
2018-09-05T00:33:57.617Z,99.90
2018-09-05T00:36:25.905Z,99.90
2018-09-05T00:38:54.215Z,99.90
2018-09-05T00:41:22.541Z,99.90
2018-09-05T00:43:51.259Z,99.90
2018-09-05T00:46:19.523Z,99.90
2018-09-05T00:48:47.786Z,99.90
2018-09-05T00:51:16.071Z,99.90
2018-09-05T00:53:44.360Z,99.90
2018-09-05T00:56:12.624Z,99.90
2018-09-05T00:58:40.890Z,99.90
2018-09-05T01:01:09.202Z,99.90
2018-09-05T01:03:37.441Z,99.90
2018-09-05T01:06:05.695Z,99.90
2018-09-05T01:08:34.032Z,99.90
2018-09-05T01:11:02.376Z,99.90
2018-09-05T01:13:30.618Z,99.90
2018-09-05T01:15:58.906Z,99.90
2018-09-05T01:18:27.176Z,99.90
2018-09-05T01:20:55.444Z,99.90
2018-09-05T01:23:23.752Z,99.90
2018-09-05T01:25:52.026Z,99.90
2018-09-05T01:28:20.263Z,99.90
2018-09-05T01:30:48.598Z,99.90
2018-09-05T01:33:16.875Z,99.90
2018-09-05T01:35:45.220Z,99.90
2018-09-05T01:38:13.480Z,99.90
2018-09-05T01:40:41.740Z,99.90
2018-09-05T01:43:09.978Z,99.90
2018-09-05T01:45:38.225Z,99.90
2018-09-05T01:48:06.601Z,99.90
2018-09-05T01:50:40.287Z,99.90
2018-09-05T01:53:08.602Z,99.90
2018-09-05T01:55:37.087Z,99.90
2018-09-05T01:58:05.450Z,99.90
2018-09-05T02:00:34.795Z,99.90
2018-09-05T02:03:03.841Z,99.90
2018-09-05T02:05:32.176Z,99.90
2018-09-05T02:08:01.753Z,99.90
2018-09-05T02:10:30.735Z,99.90
2018-09-05T02:12:59.123Z,99.90
2018-09-05T02:15:27.382Z,99.90
2018-09-05T02:17:55.632Z,99.90
2018-09-05T02:20:23.912Z,99.90
2018-09-05T02:22:52.606Z,99.90
2018-09-05T02:25:20.896Z,99.90
2018-09-05T02:27:49.207Z,99.90
2018-09-05T02:30:17.724Z,99.90
2018-09-05T02:32:46.260Z,99.90
2018-09-05T02:35:14.505Z,99.90
2018-09-05T02:37:43.115Z,99.90
2018-09-05T02:40:11.365Z,99.90
2018-09-05T02:42:39.645Z,99.90
2018-09-05T02:45:07.905Z,99.90
2018-09-05T02:47:36.441Z,99.90
2018-09-05T02:50:04.909Z,99.90
2018-09-05T02:52:33.953Z,99.90
2018-09-05T02:55:02.188Z,99.90
2018-09-05T02:57:30.504Z,99.90
2018-09-05T02:59:58.793Z,99.90
2018-09-05T03:02:27.117Z,99.90
2018-09-05T03:04:55.472Z,99.90
2018-09-05T03:07:23.734Z,99.90
2018-09-05T03:09:52.000Z,99.90
2018-09-05T03:12:21.547Z,99.90
2018-09-05T03:14:51.264Z,99.90
2018-09-05T03:17:19.837Z,99.90
2018-09-05T03:19:48.069Z,99.90
2018-09-05T03:22:16.416Z,99.90
2018-09-05T03:24:44.827Z,99.90
2018-09-05T03:27:13.111Z,99.90
2018-09-05T03:29:41.356Z,99.90
2018-09-05T03:32:09.737Z,99.90
2018-09-05T03:34:37.995Z,99.90
2018-09-05T03:37:06.335Z,99.90
2018-09-05T03:39:34.580Z,99.90
2018-09-05T03:42:02.957Z,99.90
2018-09-05T03:44:31.225Z,99.90
2018-09-05T03:46:59.512Z,99.90
2018-09-05T03:49:27.745Z,99.90
2018-09-05T03:51:55.997Z,99.90
2018-09-05T03:54:24.286Z,99.90
2018-09-05T03:56:52.630Z,99.90
2018-09-05T03:59:20.927Z,99.90
2018-09-05T04:01:49.165Z,99.90
2018-09-05T04:04:17.401Z,99.90
2018-09-05T04:06:45.633Z,99.90
2018-09-05T04:09:13.914Z,99.90
2018-09-05T04:11:42.245Z,99.90
2018-09-05T04:14:10.521Z,99.90
2018-09-05T04:16:38.744Z,99.90
2018-09-05T04:19:07.013Z,99.90
2018-09-05T04:21:35.278Z,99.90
2018-09-05T04:24:03.577Z,99.90
2018-09-05T04:26:31.856Z,99.90
2018-09-05T04:29:00.077Z,99.90
2018-09-05T04:31:28.693Z,99.90
2018-09-05T04:33:57.079Z,99.90
2018-09-05T04:36:25.347Z,99.90
2018-09-05T04:38:53.618Z,99.90
2018-09-05T04:41:21.888Z,99.90
2018-09-05T04:43:50.169Z,99.90
2018-09-05T04:46:18.480Z,99.90
2018-09-05T04:48:46.835Z,99.90
2018-09-05T04:51:15.118Z,99.90
2018-09-05T04:53:43.368Z,99.90
2018-09-05T04:56:11.579Z,99.90
2018-09-05T04:58:39.834Z,99.90
2018-09-05T05:01:08.116Z,99.90
2018-09-05T05:03:36.435Z,99.90
2018-09-05T05:06:04.796Z,99.90
2018-09-05T05:08:32.980Z,99.90
2018-09-05T05:11:01.319Z,99.90
2018-09-05T05:13:29.572Z,99.90
2018-09-05T05:15:57.837Z,99.90
2018-09-05T05:18:26.197Z,99.90
2018-09-05T05:20:54.465Z,99.90
2018-09-05T05:23:22.893Z,99.90
2018-09-05T05:25:51.154Z,99.90
2018-09-05T05:28:19.506Z,99.90
2018-09-05T05:30:47.821Z,99.90
2018-09-05T05:33:16.140Z,99.90
2018-09-05T05:35:44.429Z,99.90
2018-09-05T05:38:12.725Z,99.90
2018-09-05T05:40:40.994Z,99.90
2018-09-05T05:43:09.347Z,99.90
2018-09-05T05:45:37.662Z,99.90
2018-09-05T05:48:05.952Z,99.90
2018-09-05T05:50:34.282Z,99.90
2018-09-05T05:53:02.528Z,99.90
2018-09-05T05:55:30.800Z,99.90
2018-09-05T05:57:59.147Z,99.90
2018-09-05T06:00:27.408Z,99.90
2018-09-05T06:02:56.153Z,99.90
2018-09-05T06:05:24.471Z,99.90
2018-09-05T06:07:52.942Z,99.90
2018-09-05T06:10:24.827Z,99.90
2018-09-05T06:12:53.730Z,99.90
2018-09-05T06:15:22.015Z,99.90
2018-09-05T06:17:50.313Z,99.90
2018-09-05T06:20:18.583Z,99.90
2018-09-05T06:22:47.296Z,99.90
2018-09-05T06:25:15.634Z,99.90
2018-09-05T06:27:43.989Z,99.90
2018-09-05T06:30:12.225Z,99.90
2018-09-05T06:32:40.501Z,99.90
2018-09-05T06:35:08.763Z,99.90
2018-09-05T06:37:37.145Z,99.90
2018-09-05T06:40:05.754Z,99.90
2018-09-05T06:42:34.064Z,99.90
2018-09-05T06:45:02.434Z,99.90
2018-09-05T06:47:30.676Z,99.90
2018-09-05T06:49:58.989Z,99.90
2018-09-05T06:52:27.289Z,99.90
2018-09-05T06:54:55.556Z,99.90
2018-09-05T06:57:24.052Z,99.90
2018-09-05T06:59:52.334Z,99.90
2018-09-05T07:02:20.740Z,99.90
2018-09-05T07:04:49.578Z,99.90
2018-09-05T07:07:17.882Z,99.90
2018-09-05T07:09:46.116Z,99.90
2018-09-05T07:12:14.383Z,99.90
2018-09-05T07:14:42.669Z,99.90
2018-09-05T07:17:10.951Z,99.90
2018-09-05T07:19:39.214Z,99.90
2018-09-05T07:22:07.540Z,99.90
2018-09-05T07:24:35.771Z,99.90
2018-09-05T07:27:04.059Z,99.90
2018-09-05T07:29:32.300Z,99.90
2018-09-05T07:32:00.621Z,99.90
2018-09-05T07:34:28.888Z,99.90
2018-09-05T07:36:57.208Z,99.90
2018-09-05T07:39:25.485Z,99.90
2018-09-05T07:41:53.825Z,99.90
2018-09-05T07:44:22.057Z,99.90
2018-09-05T07:46:50.379Z,99.90
2018-09-05T07:49:18.637Z,99.90
2018-09-05T07:51:46.875Z,99.90
2018-09-05T07:54:15.210Z,99.90
2018-09-05T07:56:43.788Z,99.90
2018-09-05T07:59:12.064Z,99.90
2018-09-05T08:01:40.586Z,99.90
2018-09-05T08:04:09.394Z,99.90
2018-09-05T08:06:37.687Z,99.90
2018-09-05T08:09:08.153Z,99.90
2018-09-05T08:11:36.459Z,99.90
2018-09-05T08:14:05.017Z,99.90
2018-09-05T08:16:33.518Z,99.90
2018-09-05T08:19:01.849Z,99.90
2018-09-05T08:21:30.507Z,99.90
2018-09-05T08:23:58.781Z,99.90
2018-09-05T08:26:27.060Z,99.90
2018-09-05T08:28:55.412Z,99.90
2018-09-05T08:31:23.602Z,99.90
2018-09-05T08:33:51.892Z,99.90
2018-09-05T08:36:20.455Z,99.90
2018-09-05T08:38:48.501Z,99.90
2018-09-05T08:41:16.741Z,99.90
2018-09-05T08:43:45.049Z,99.90
2018-09-05T08:46:13.252Z,99.90
2018-09-05T08:48:41.572Z,99.90
2018-09-05T08:51:09.951Z,99.90
2018-09-05T08:53:38.284Z,99.90
2018-09-05T08:56:35.262Z,99.90
2018-09-05T08:59:03.532Z,99.90
2018-09-05T09:01:31.809Z,99.90
2018-09-05T09:04:00.133Z,99.90
2018-09-05T09:06:28.404Z,99.90
2018-09-05T09:08:56.723Z,99.90
2018-09-05T09:11:24.984Z,99.90
2018-09-05T09:13:53.272Z,99.90
2018-09-05T09:16:21.549Z,99.90
2018-09-05T09:18:49.949Z,99.90
2018-09-05T09:21:18.233Z,99.90
2018-09-05T09:23:46.512Z,99.90
2018-09-05T09:26:14.831Z,99.90
2018-09-05T09:28:44.142Z,99.90
2018-09-05T09:31:12.411Z,99.90
2018-09-05T09:33:40.696Z,99.90
2018-09-05T09:36:15.703Z,99.90
2018-09-05T09:38:44.014Z,99.90
2018-09-05T09:41:12.305Z,99.90
2018-09-05T09:43:40.575Z,99.80
2018-09-05T09:46:08.839Z,99.30
2018-09-05T09:48:37.092Z,99.10
2018-09-05T09:51:05.371Z,99.20
2018-09-05T09:53:33.645Z,99.00
2018-09-05T09:56:01.963Z,98.80
2018-09-05T09:58:30.351Z,98.60
2018-09-05T10:01:04.177Z,98.30
2018-09-05T10:03:37.980Z,98.20
2018-09-05T10:06:11.737Z,98.30
2018-09-05T10:08:45.496Z,98.50
2018-09-05T10:11:15.599Z,98.00
2018-09-05T10:13:49.202Z,97.80
2018-09-05T10:16:22.946Z,97.60
2018-09-05T10:18:53.000Z,97.50
2018-09-05T10:21:21.459Z,97.30
2018-09-05T10:23:49.741Z,96.90
2018-09-05T10:26:18.003Z,96.50
2018-09-05T10:28:46.264Z,96.40
2018-09-05T10:31:14.536Z,96.20
2018-09-05T10:33:42.851Z,96.00
2018-09-05T10:36:11.192Z,96.10
2018-09-05T10:38:39.468Z,95.60
2018-09-05T10:41:07.800Z,95.00
2018-09-05T10:43:36.039Z,95.00
2018-09-05T10:46:04.311Z,95.00
2018-09-05T10:48:32.585Z,95.20
2018-09-05T10:51:00.877Z,94.80
2018-09-05T10:53:29.175Z,94.50
2018-09-05T10:55:57.480Z,94.70
2018-09-05T10:58:25.794Z,94.50
2018-09-05T11:00:54.078Z,94.10
2018-09-05T11:03:22.328Z,94.30
2018-09-05T11:05:50.539Z,93.90
2018-09-05T11:08:18.755Z,93.70
2018-09-05T11:10:47.083Z,93.70
2018-09-05T11:13:15.320Z,94.40
2018-09-05T11:15:43.612Z,93.70
2018-09-05T11:18:11.892Z,93.40
2018-09-05T11:20:40.196Z,93.60
2018-09-05T11:23:08.482Z,92.90
2018-09-05T11:25:36.744Z,93.00
2018-09-05T11:28:05.064Z,92.50
2018-09-05T11:30:33.435Z,92.00
2018-09-05T11:33:01.689Z,91.70
2018-09-05T11:35:29.912Z,91.40
2018-09-05T11:37:58.262Z,91.00
2018-09-05T11:40:26.546Z,91.10
2018-09-05T11:42:54.821Z,90.60
2018-09-05T11:45:23.048Z,90.30
2018-09-05T11:47:51.301Z,90.00
2018-09-05T11:50:19.517Z,88.80
2018-09-05T11:52:47.740Z,88.90
2018-09-05T11:55:16.019Z,88.40
2018-09-05T11:57:44.288Z,87.70
2018-09-05T12:00:12.818Z,87.20
2018-09-05T12:02:41.329Z,86.80
2018-09-05T12:05:09.778Z,87.40
2018-09-05T12:07:39.132Z,87.90
2018-09-05T12:10:07.465Z,86.90
2018-09-05T12:12:35.790Z,87.30
2018-09-05T12:15:04.160Z,86.20
2018-09-05T12:17:32.441Z,85.80
2018-09-05T12:20:00.691Z,86.40
2018-09-05T12:22:29.001Z,85.70
2018-09-05T12:24:57.272Z,85.50
2018-09-05T12:27:25.529Z,85.00
2018-09-05T12:29:53.839Z,83.50
2018-09-05T12:32:22.122Z,85.20
2018-09-05T12:34:50.381Z,85.10
2018-09-05T12:37:18.653Z,84.90
2018-09-05T12:39:47.005Z,84.00
2018-09-05T12:42:15.327Z,85.00
2018-09-05T12:44:43.689Z,84.00
2018-09-05T12:47:11.974Z,84.80
2018-09-05T12:49:40.234Z,81.10
2018-09-05T12:52:08.491Z,82.90
2018-09-05T12:54:36.762Z,82.50
2018-09-05T12:57:05.106Z,81.90
2018-09-05T12:59:33.396Z,81.60
2018-09-05T13:02:01.671Z,81.20
2018-09-05T13:04:29.907Z,80.60
2018-09-05T13:06:58.170Z,80.60
2018-09-05T13:09:26.432Z,80.90
2018-09-05T13:11:54.753Z,81.80
2018-09-05T13:14:23.397Z,81.80
2018-09-05T13:16:52.081Z,82.20
2018-09-05T13:19:20.435Z,81.60
2018-09-05T13:21:48.768Z,81.20
2018-09-05T13:24:17.154Z,81.00
2018-09-05T13:26:46.707Z,80.90
2018-09-05T13:29:14.880Z,80.40
2018-09-05T13:31:43.144Z,81.10
2018-09-05T13:34:11.408Z,82.00
2018-09-05T13:36:39.661Z,81.20
2018-09-05T13:39:09.067Z,80.90
2018-09-05T13:41:37.355Z,80.40
2018-09-05T13:44:05.706Z,81.00
2018-09-05T13:46:33.999Z,80.60
2018-09-05T13:49:02.268Z,80.80
2018-09-05T13:51:30.580Z,80.40
2018-09-05T13:53:58.920Z,79.40
2018-09-05T13:56:27.184Z,78.60
2018-09-05T13:58:55.520Z,79.70
2018-09-05T14:01:23.861Z,79.90
2018-09-05T14:03:52.142Z,80.10
2018-09-05T14:06:21.092Z,80.60
2018-09-05T14:08:49.372Z,79.70
2018-09-05T14:11:17.659Z,81.20
2018-09-05T14:13:45.918Z,79.80
2018-09-05T14:16:14.241Z,79.20
2018-09-05T14:18:42.542Z,78.80
2018-09-05T14:21:10.885Z,79.10
2018-09-05T14:23:39.164Z,78.20
2018-09-05T14:26:07.471Z,78.50
2018-09-05T14:28:35.815Z,78.10
2018-09-05T14:31:04.153Z,78.70
2018-09-05T14:33:32.479Z,77.50
2018-09-05T14:36:00.884Z,77.40
2018-09-05T14:38:29.193Z,77.00
2018-09-05T14:40:57.429Z,76.90
2018-09-05T14:43:25.701Z,78.10
2018-09-05T14:45:54.010Z,76.80
2018-09-05T14:48:22.305Z,78.20
2018-09-05T14:50:50.493Z,75.40
2018-09-05T14:53:18.771Z,76.00
2018-09-05T14:55:47.074Z,74.90
2018-09-05T14:58:15.457Z,74.30
2018-09-05T15:00:43.725Z,74.50
2018-09-05T15:03:12.668Z,74.30
2018-09-05T15:05:40.996Z,74.40
2018-09-05T15:08:09.315Z,76.00
2018-09-05T15:10:37.622Z,75.40
2018-09-05T15:13:05.981Z,75.80
2018-09-05T15:15:34.232Z,76.10
2018-09-05T15:18:02.530Z,76.30
2018-09-05T15:20:30.840Z,76.80
2018-09-05T15:22:59.232Z,77.10
2018-09-05T15:25:27.592Z,77.50
2018-09-05T15:27:56.092Z,76.00
2018-09-05T15:30:24.427Z,75.20
2018-09-05T15:32:52.663Z,75.00
2018-09-05T15:35:21.246Z,75.30
2018-09-05T15:37:49.580Z,75.80
2018-09-05T15:40:17.971Z,76.70
2018-09-05T15:42:46.321Z,77.60
2018-09-05T15:45:14.757Z,77.70
2018-09-05T15:47:43.209Z,78.30
2018-09-05T15:50:11.523Z,79.10
2018-09-05T15:52:39.793Z,78.00
2018-09-05T15:55:08.076Z,79.20
2018-09-05T15:57:36.441Z,79.70
2018-09-05T16:00:04.936Z,79.90
2018-09-05T16:02:33.227Z,80.20
2018-09-05T16:05:01.445Z,80.70
2018-09-05T16:07:29.756Z,79.40
2018-09-05T16:09:58.015Z,79.90
2018-09-05T16:12:26.268Z,80.10
2018-09-05T16:14:54.509Z,80.10
2018-09-05T16:17:23.375Z,80.30
2018-09-05T16:19:51.665Z,81.30
2018-09-05T16:22:20.037Z,80.30
2018-09-05T16:24:48.314Z,80.60
2018-09-05T16:27:16.629Z,80.60
2018-09-05T16:29:44.872Z,80.30
2018-09-05T16:32:13.119Z,80.50
2018-09-05T16:34:41.479Z,80.50
2018-09-05T16:37:10.324Z,80.00
2018-09-05T16:39:38.632Z,80.30
2018-09-05T16:42:06.865Z,80.20
2018-09-05T16:44:35.152Z,80.20
2018-09-05T16:47:03.422Z,80.50
2018-09-05T16:49:31.784Z,81.00
2018-09-05T16:51:59.957Z,81.90
2018-09-05T16:54:28.327Z,82.10
2018-09-05T16:56:57.199Z,82.20
2018-09-05T16:59:25.653Z,81.60
2018-09-05T17:02:00.329Z,82.30
2018-09-05T17:04:28.787Z,82.90
2018-09-05T17:06:57.396Z,82.40
2018-09-05T17:09:25.769Z,83.00
2018-09-05T17:11:54.004Z,82.60
2018-09-05T17:14:22.270Z,82.90
2018-09-05T17:16:50.545Z,83.00
2018-09-05T17:19:18.813Z,83.50
2018-09-05T17:21:47.129Z,83.90
2018-09-05T17:24:15.459Z,84.40
2018-09-05T17:26:43.756Z,84.60
2018-09-05T17:29:12.110Z,84.80
2018-09-05T17:31:40.444Z,85.40
2018-09-05T17:34:08.682Z,85.50
2018-09-05T17:36:36.960Z,85.40
2018-09-05T17:39:07.836Z,85.80
2018-09-05T17:41:36.151Z,85.50
2018-09-05T17:44:04.516Z,86.50
2018-09-05T17:46:33.092Z,86.00
2018-09-05T17:49:01.451Z,86.00
2018-09-05T17:51:29.746Z,86.60
2018-09-05T17:53:58.027Z,86.90
2018-09-05T17:56:26.546Z,87.10
2018-09-05T17:58:54.807Z,86.50
2018-09-05T18:01:24.378Z,87.10
2018-09-05T18:03:52.646Z,87.30
2018-09-05T18:06:21.361Z,87.60
2018-09-05T18:08:49.785Z,87.50
2018-09-05T18:11:18.116Z,87.60
2018-09-05T18:13:46.668Z,88.00
2018-09-05T18:16:14.948Z,87.70
2018-09-05T18:18:43.422Z,88.00
2018-09-05T18:21:11.720Z,88.20
2018-09-05T18:23:40.127Z,88.10
2018-09-05T18:26:08.773Z,88.90
2018-09-05T18:28:37.084Z,88.40
2018-09-05T18:31:05.416Z,88.30
2018-09-05T18:33:33.612Z,89.10
2018-09-05T18:36:01.900Z,88.70
2018-09-05T18:38:30.203Z,88.20
2018-09-05T18:40:58.458Z,88.20
2018-09-05T18:43:26.772Z,88.40
2018-09-05T18:45:55.072Z,89.00
2018-09-05T18:48:23.511Z,88.70
2018-09-05T18:50:51.752Z,89.10
2018-09-05T18:53:20.052Z,89.00
2018-09-05T18:55:48.306Z,89.30
2018-09-05T18:58:16.576Z,89.30
2018-09-05T19:00:45.121Z,89.50
2018-09-05T19:03:13.307Z,89.60
2018-09-05T19:05:41.599Z,89.40
2018-09-05T19:08:09.913Z,89.70
2018-09-05T19:10:38.129Z,89.80
2018-09-05T19:13:06.506Z,89.80
2018-09-05T19:15:34.800Z,89.90
2018-09-05T19:20:37.777Z,90.10
2018-09-05T19:23:06.055Z,90.30
2018-09-05T19:25:34.322Z,90.20
2018-09-05T19:28:02.614Z,90.30
2018-09-05T19:30:30.868Z,90.40
2018-09-05T19:32:59.162Z,90.60
2018-09-05T19:35:27.492Z,90.60
2018-09-05T19:37:55.829Z,90.80
2018-09-05T19:40:24.224Z,90.60
2018-09-05T19:42:52.534Z,90.70
2018-09-05T19:45:20.785Z,90.60
2018-09-05T19:47:51.755Z,90.80
2018-09-05T19:50:20.142Z,91.00
2018-09-05T19:52:48.402Z,91.20
2018-09-05T19:55:16.685Z,91.10
2018-09-05T19:57:44.954Z,91.40
2018-09-05T20:00:14.696Z,91.30
2018-09-05T20:02:43.044Z,91.30
2018-09-05T20:05:11.326Z,91.40
2018-09-05T20:07:39.624Z,91.80
2018-09-05T20:10:07.901Z,91.30
2018-09-05T20:12:36.222Z,91.40
2018-09-05T20:15:04.535Z,91.30
2018-09-05T20:17:32.844Z,91.50
2018-09-05T20:20:01.169Z,91.70
2018-09-05T20:22:29.417Z,91.90
2018-09-05T20:24:57.812Z,92.00
2018-09-05T20:27:26.101Z,92.00
2018-09-05T20:29:54.574Z,92.00
2018-09-05T20:32:22.822Z,92.00
2018-09-05T20:34:51.226Z,92.20
2018-09-05T20:37:19.514Z,92.30
2018-09-05T20:39:47.802Z,92.50
2018-09-05T20:42:16.055Z,92.30
2018-09-05T20:44:44.373Z,92.30
2018-09-05T20:47:12.670Z,92.30
2018-09-05T20:49:41.009Z,92.50
2018-09-05T20:52:09.309Z,92.40
2018-09-05T20:54:37.655Z,92.70
2018-09-05T20:57:05.980Z,92.90
2018-09-05T20:59:34.260Z,92.80
2018-09-05T21:02:02.655Z,92.80
2018-09-05T21:04:30.907Z,93.00
2018-09-05T21:06:59.226Z,93.10
2018-09-05T21:09:27.493Z,93.20
2018-09-05T21:11:55.837Z,93.50
2018-09-05T21:14:24.426Z,93.70
2018-09-05T21:16:52.766Z,93.80
2018-09-05T21:19:21.009Z,93.80
2018-09-05T21:21:49.312Z,93.60
2018-09-05T21:24:17.619Z,93.50
2018-09-05T21:26:45.861Z,93.40
2018-09-05T21:29:14.114Z,93.60
2018-09-05T21:31:42.491Z,93.70
2018-09-05T21:34:10.829Z,93.70
2018-09-05T21:36:39.203Z,93.70
2018-09-05T21:39:08.733Z,93.50
2018-09-05T21:41:37.106Z,93.50
2018-09-05T21:44:05.433Z,93.80
2018-09-05T21:46:33.702Z,93.60
2018-09-05T21:49:01.999Z,93.60
2018-09-05T21:51:30.274Z,93.60
2018-09-05T21:53:58.537Z,93.70
2018-09-05T21:56:26.843Z,93.70
2018-09-05T21:58:55.179Z,93.90
2018-09-05T22:01:23.478Z,94.00
2018-09-05T22:03:52.636Z,94.10
2018-09-05T22:06:21.063Z,94.20
2018-09-05T22:08:49.834Z,94.20
2018-09-05T22:11:25.368Z,94.20
2018-09-05T22:13:54.122Z,94.30
2018-09-05T22:16:22.407Z,94.60
2018-09-05T22:18:50.688Z,94.80
2018-09-05T22:21:19.265Z,95.10
2018-09-05T22:23:47.642Z,95.00
2018-09-05T22:26:15.936Z,95.20
2018-09-05T22:28:44.254Z,95.20
2018-09-05T22:31:12.532Z,95.20
2018-09-05T22:33:40.807Z,95.40
2018-09-05T22:36:09.137Z,95.30
2018-09-05T22:38:37.421Z,95.30
2018-09-05T22:41:05.705Z,95.50
2018-09-05T22:43:45.335Z,95.70
2018-09-05T22:46:24.969Z,95.80
2018-09-05T22:53:25.373Z,95.90
2018-09-05T22:58:11.492Z,95.90
2018-09-05T23:01:02.662Z,96.00
2018-09-05T23:04:13.558Z,96.40
2018-09-05T23:07:50.572Z,96.50
2018-09-05T23:10:30.130Z,96.70
2018-09-05T23:13:09.808Z,96.60
2018-09-05T23:15:49.522Z,96.30
2018-09-05T23:18:32.818Z,96.30
2018-09-05T23:21:23.010Z,96.40
2018-09-05T23:24:03.504Z,96.50
2018-09-05T23:26:31.767Z,96.50
2018-09-05T23:29:00.362Z,96.50
2018-09-05T23:31:28.679Z,96.80
2018-09-05T23:33:56.940Z,97.20
2018-09-05T23:36:25.384Z,97.10
2018-09-05T23:38:53.706Z,97.30
2018-09-05T23:41:22.023Z,97.10
2018-09-05T23:43:50.332Z,97.20
2018-09-05T23:46:18.595Z,97.20
2018-09-05T23:48:46.886Z,97.40
2018-09-05T23:51:15.153Z,97.30
2018-09-05T23:53:43.428Z,97.20
2018-09-05T23:56:11.720Z,97.40
2018-09-05T23:58:40.017Z,97.50
